Here is the Quick Look data you requested

The Data originates at the National Weather Service, and is made available here by the UAlbany Department of Atmospheric and Environmental Sciences

Surface Observations

KSBY 180154Z 09005KT 6SM -RA BR OVC032 03/02 A2995 RMK AO2 RAB06E18B36 SLP144
 P0002 T00330022=
KSBY 180202Z 11005KT 6SM -RA BR BKN029 OVC034 03/02 A2995 RMK AO2 P0001
 T00330022=
KSBY 180254Z 17005KT 5SM -RA BR BKN022 OVC090 03/03 A2994 RMK AO2 SLP142 P0007
 60009 T00330028 56031=
KSBY 180307Z 15006KT 7SM -RA SCT021 OVC090 03/03 A2993 RMK AO2 P0001 T00330028=
KSBY 180338Z AUTO 15003KT 5SM -RA BR FEW006 BKN016 OVC070 04/04 A2993 RMK AO2
 P0006 T00390039=
KSBY 180345Z AUTO 15004KT 5SM -RA BR SCT006 BKN014 OVC070 04/04 A2992 RMK AO2
 P0007 T00390039=
KSBY 180354Z AUTO 00000KT 6SM -RA BR SCT006 BKN014 OVC037 04/04 A2993 RMK AO2
 SLP137 P0007 T00390039=
KSBY 180401Z AUTO 22003KT 6SM -RA BR BKN005 OVC014 04/04 A2993 RMK AO2 P0001
 T00390039=
KSBY 180446Z AUTO 00000KT 5SM -RA BR OVC004 04/04 A2992 RMK AO2 P0004 T00440044=
KSBY 180454Z AUTO 00000KT 6SM -RA BR OVC004 04/04 A2991 RMK AO2 SLP131 P0004
 T00440044 400611039=
KSBY 180516Z AUTO 32003KT 7SM -RA OVC005 04/04 A2991 RMK AO2 P0001 T00440044=
KSBY 180554Z AUTO 00000KT 5SM -RA BR OVC005 04/04 A2990 RMK AO2 SLP126 P0003
 60023 T00440044 10044 20033 58016=
KSBY 180619Z AUTO 00000KT 5SM -RA BR BKN004 OVC013 04/04 A2989 RMK AO2 P0001
 T00440044=
KSBY 180654Z AUTO 13005KT 5SM -RA BR SCT004 BKN011 OVC075 04/04 A2986 RMK AO2
 PRESFR SLP114 P0004 T00440044=
KSBY 180703Z AUTO 16006KT 5SM -RA BR FEW004 SCT040 OVC080 04/04 A2986 RMK AO2
 P0001 T00440044=
KSBY 180754Z AUTO 21004KT 5SM -RA BR FEW013 SCT070 OVC090 06/06 A2985 RMK AO2
 SLP111 P0004 T00560056=
KSBY 180812Z AUTO 21004KT 6SM -RA BR FEW005 SCT070 OVC085 06/06 A2985 RMK AO2
 P0001 T00560056=
KSBY 180854Z AUTO 19005KT 9SM -RA SCT005 OVC090 06/06 A2979 RMK AO2 PRESFR
 SLP090 P0003 60011 T00560056 58036=
KSBY 180954Z AUTO 23005KT 7SM -RA SCT005 BKN060 OVC080 06/06 A2980 RMK AO2
 SLP093 P0005 T00560056=
KSBY 181054Z 16004KT 7SM RA SCT004 SCT022 OVC080 06/06 A2973 RMK AO2 SLP071
 P0004 T00610061=
KSBY 181102Z 00000KT 7SM -RA BKN004 BKN016 OVC080 06/06 A2975 RMK AO2 P0001
 T00610061=
KSBY 181154Z 30008KT 9SM OVC003 07/07 A2981 RMK AO2 RAE44 SLP098 P0002 60022
 70045 T00670067 10067 20044 53008=
KSBY 181254Z 29010G16KT 10SM -RA OVC006 06/06 A2988 RMK AO2 RAB1157 PRESRR
 SLP121 P0001 T00610056=
KSBY 181335Z 26007KT 10SM SCT005 SCT019 OVC025 06/06 A2989 RMK AO2 RAE06 P0000
 T00610056=
KSBY 181254Z 29010G16KT 10SM -RA OVC006 06/06 A2988 RMK AO2 RAB1157 PRESRR
 SLP121 P0001 T00610056=
KSBY 181354Z 28006KT 10SM BKN026 OVC031 06/06 A2987 RMK AO2 RAE06 SLP119 P0000
 T00610056=
KSBY 181411Z 26005KT 10SM OVC031 06/06 A2989 RMK AO2 T00610056=
KSBY 181454Z 28007KT 10SM OVC035 07/06 A2991 RMK AO2 SLP129 60001 T00670056
 51031=
KSBY 181555Z 29007KT 10SM OVC035 07/06 A2994=
KSBY 181654Z 30015G23KT 10SM SCT039 09/04 A2995 RMK AO2 SLP143 T00940044 $=
KSBY 181754Z 29016G25KT 10SM FEW033 BKN041 BKN050 10/03 A2996 RMK AO2 SLP146
 60003 T01000033 10106 20056 $=
KSBY 181854Z 30015G27KT 10SM FEW045 11/02 A2997 RMK AO2 PK WND 31027/1849
 SLP151 T01060017 $=
KSBY 181954Z 29014G24KT 10SM FEW048 11/00 A2999 RMK AO2 PK WND 32028/1904
 SLP158 T01060000 $=
KSBY 182054Z 32021G25KT 10SM CLR 09/M01 A3004 RMK AO2 PK WND 32029/2000 PRESRR
 SLP174 T00891006 53028 $=
KSBY 182154Z 31012G21KT 10SM SCT050 07/M01 A3009 RMK AO2 PK WND 33027/2059
 PRESRR SLP191 T00721011 $=
KSBY 182254Z 31011G21KT 10SM BKN060 07/M02 A3014 RMK AO2 PK WND 31029/2225
 SLP208 T00671022=
KSBY 182354Z 32019G26KT 10SM OVC065 07/M03 A3020 RMK AO2 PK WND 33026/2350
 SLP227 T00671028 10111 20067 53053 $=
KSBY 190054Z 32014G25KT 10SM FEW070 05/M02 A3024 RMK AO2 SLP242 T00501022 $=
KSBY 190154Z 32013G21KT 10SM CLR 04/M03 A3027 RMK AO2 SLP253 T00441028 $=
KSBY 190254Z 32012KT 10SM CLR 04/M03 A3031 RMK AO2 SLP268 T00391033 53040 $=
KSBY 190354Z AUTO 32010KT 10SM CLR 03/M04 A3035 RMK AO2 SLPNO T00331039 $=
KSBY 190454Z AUTO 33011G18KT 10SM CLR 03/M04 A3038 RMK AO2 SLP292 T00281044
 401110028 $=
KSBY 190554Z AUTO 33015G21KT 10SM CLR 02/M06 A3042 RMK AO2 SLP303 T00221056
 10061 20022 51036 $=
KSBY 190654Z AUTO 32008KT 10SM CLR 01/M06 A3044 RMK AO2 SLP310 T00111056 $=
KSBY 190754Z AUTO 32008KT 10SM CLR 00/M06 A3046 RMK AO2 SLP317 T00001056 $=